Dixonville, Canada
Current Conditions -  °F | °C
As of 7:50 AM on Friday 24 Oct 2014 (Local Time) from CYPE Reporting Station
Overcast Overcast  
Wind Chill: 26°   Ceiling: 3000
Heat Index: 32°   Visibility: 15mi
Dew Point: 32°   Wind: 6mph
Humidity: 100%   Direction: 250°WSW
Pressure: 29.73"   Gusts: NA
Location:  56.53°N, 117.67°W
Report Text: CYPE 241350Z 25005KT 15SM FEW005 OVC030 00/M00 A2973 RMK ST2SC6 SLP096
Loading
Personal Weather Stations






























Interactive Weather Map
Tropical Storm Tracking
New forecast layout! Learn more

10-Day Weather Forecast

Advertisements
Track Severe Weather on mobile